Time;durP1;ratioP1;P1;durP2;ratioP2;P2;SDS_P1;SDS_P2;PMS_P1;PMS_P2;Temp;Humidity;BMP_temperature;BMP_pressure;BME280_temperature;BME280_humidity;BME280_pressure;Samples;Min_cycle;Max_cycle;Signal;HPM_P1;HPM_P2
2023/04/14 00:00:58;;;;;;;30.70;19.67;;;8.30;99.90;;;;;;4995743;28;20109;-84
2023/04/14 00:03:24;;;;;;;31.83;20.08;;;8.30;99.90;;;;;;4978657;28;20030;-83
2023/04/14 00:05:50;;;;;;;29.35;16.42;;;8.30;99.90;;;;;;4995788;28;20030;-83
2023/04/14 00:08:15;;;;;;;30.23;17.60;;;8.30;99.90;;;;;;4995431;28;20084;-84
2023/04/14 00:10:41;;;;;;;26.85;17.27;;;8.40;99.90;;;;;;4995929;28;20030;-84
2023/04/14 00:13:07;;;;;;;24.35;16.15;;;8.40;99.90;;;;;;4995683;28;20030;-84
2023/04/14 00:15:32;;;;;;;27.13;17.77;;;8.40;99.90;;;;;;4995437;28;20051;-84
2023/04/14 00:17:58;;;;;;;26.48;16.35;;;8.40;99.90;;;;;;4995676;28;20026;-83
2023/04/14 00:20:24;;;;;;;26.65;16.67;;;8.40;99.90;;;;;;4995263;28;20491;-85
2023/04/14 00:22:49;;;;;;;26.42;15.77;;;8.40;99.90;;;;;;4995369;28;20026;-85
2023/04/14 00:25:15;;;;;;;25.00;14.68;;;8.40;99.90;;;;;;4995300;28;20026;-84
2023/04/14 00:27:41;;;;;;;26.58;15.98;;;8.30;99.90;;;;;;4995250;28;20026;-84
2023/04/14 00:30:07;;;;;;;23.35;14.30;;;8.30;99.90;;;;;;4977839;28;20380;-84
2023/04/14 00:32:33;;;;;;;23.15;14.25;;;8.30;99.90;;;;;;4995717;28;20022;-84
2023/04/14 00:35:01;;;;;;;22.00;15.93;;;8.30;99.90;;;;;;4995421;28;20517;-84
2023/04/14 00:37:27;;;;;;;21.65;15.07;;;8.30;99.90;;;;;;4994842;28;20105;-84
2023/04/14 00:39:53;;;;;;;19.90;14.10;;;8.30;99.90;;;;;;4995179;28;20049;-84
2023/04/14 00:42:19;;;;;;;24.30;15.07;;;8.30;99.90;;;;;;4978205;28;20469;-84
2023/04/14 00:44:46;;;;;;;24.40;14.95;;;8.20;99.90;;;;;;4995021;28;20045;-83
2023/04/14 00:47:12;;;;;;;24.38;16.00;;;8.20;99.90;;;;;;4995014;28;20522;-84
2023/04/14 00:49:38;;;;;;;25.65;16.50;;;8.20;99.90;;;;;;4994765;28;20058;-84
2023/04/14 00:52:04;;;;;;;26.02;17.02;;;8.20;99.90;;;;;;4977554;28;20125;-84
2023/04/14 00:54:31;;;;;;;24.35;15.05;;;8.20;99.90;;;;;;4994737;28;20422;-84
2023/04/14 00:56:57;;;;;;;29.05;16.23;;;8.20;99.90;;;;;;4994963;28;20029;-85
2023/04/14 00:59:24;;;;;;;28.95;17.13;;;8.20;99.90;;;;;;4995066;28;20048;-84
2023/04/14 01:01:50;;;;;;;24.90;17.13;;;8.20;99.90;;;;;;4970817;28;20114;-83
2023/04/14 01:04:17;;;;;;;25.33;17.27;;;8.30;99.90;;;;;;4975235;28;20541;-84
2023/04/14 01:06:42;;;;;;;23.45;16.58;;;8.20;99.90;;;;;;4974856;28;20019;-83
2023/04/14 01:09:08;;;;;;;20.42;14.70;;;8.10;99.90;;;;;;4974924;28;20042;-84
2023/04/14 01:11:35;;;;;;;25.98;15.90;;;8.10;99.90;;;;;;4973203;28;20026;-84
2023/04/14 01:14:22;;;;;;;26.42;16.85;;;8.00;99.90;;;;;;4994392;28;20029;-84
2023/04/14 01:16:52;;;;;;;29.80;18.08;;;8.00;99.90;;;;;;4994286;28;20026;-85
2023/04/14 01:19:24;;;;;;;28.83;18.67;;;7.90;99.90;;;;;;4994589;28;20054;-83
2023/04/14 01:21:54;;;;;;;30.30;19.05;;;7.80;99.90;;;;;;4994379;28;20049;-84
2023/04/14 01:24:35;;;;;;;31.77;18.10;;;7.70;99.90;;;;;;4994631;28;20025;-83
2023/04/14 01:27:10;;;;;;;28.33;18.30;;;7.70;99.90;;;;;;4994196;28;20026;-84
2023/04/14 01:30:00;;;;;;;33.38;19.92;;;7.60;99.90;;;;;;4976517;28;20030;-84
2023/04/14 01:32:28;;;;;;;32.60;18.50;;;7.50;99.90;;;;;;4993957;28;20133;-85
2023/04/14 01:35:04;;;;;;;34.85;20.48;;;7.50;99.90;;;;;;4993843;28;20358;-84
2023/04/14 01:37:34;;;;;;;33.58;19.75;;;7.50;99.90;;;;;;4994064;28;20027;-84
2023/04/14 01:40:06;;;;;;;35.58;19.15;;;7.50;99.90;;;;;;4993992;28;20173;-84
2023/04/14 01:42:36;;;;;;;33.35;19.23;;;7.40;99.90;;;;;;4993960;28;20058;-84
2023/04/14 01:45:17;;;;;;;30.63;19.42;;;7.40;99.90;;;;;;4993846;28;20027;-85
2023/04/14 01:47:45;;;;;;;34.13;19.90;;;7.40;99.90;;;;;;4993833;28;20038;-84
2023/04/14 01:50:12;;;;;;;38.28;21.52;;;7.40;99.90;;;;;;4976387;28;20503;-84
2023/04/14 01:52:41;;;;;;;33.58;20.33;;;7.40;99.90;;;;;;4993217;28;20104;-85
2023/04/14 01:55:08;;;;;;;31.02;20.52;;;7.40;99.90;;;;;;4993888;28;20023;-84
2023/04/14 01:57:37;;;;;;;35.47;20.70;;;7.30;99.90;;;;;;4993652;28;20476;-84
2023/04/14 02:00:04;;;;;;;37.63;20.25;;;7.40;99.90;;;;;;4993759;28;20026;-84
2023/04/14 02:02:31;;;;;;;33.22;19.20;;;7.40;99.90;;;;;;4993569;28;20050;-85
2023/04/14 02:04:58;;;;;;;34.70;19.92;;;7.30;99.90;;;;;;4993410;28;20084;-84
2023/04/14 02:07:25;;;;;;;33.75;19.88;;;7.30;99.90;;;;;;4980694;28;20054;-84
2023/04/14 02:09:55;;;;;;;32.83;19.10;;;7.30;99.90;;;;;;4974165;28;20473;-84
2023/04/14 02:12:23;;;;;;;34.78;19.80;;;7.30;99.90;;;;;;4973906;28;20033;-84
2023/04/14 02:14:50;;;;;;;34.83;18.83;;;7.30;99.90;;;;;;4974126;28;20098;-84
2023/04/14 02:17:18;;;;;;;33.65;18.60;;;7.30;99.90;;;;;;4974245;28;20089;-84
2023/04/14 02:19:45;;;;;;;38.72;19.38;;;7.30;99.90;;;;;;4984448;28;20027;-84
2023/04/14 02:22:10;;;;;;;33.35;20.80;;;7.40;99.90;;;;;;4977221;28;20026;-84
2023/04/14 02:24:36;;;;;;;32.97;18.42;;;7.40;99.90;;;;;;4997648;28;20029;-84
2023/04/14 02:27:10;;;;;;;32.40;18.20;;;7.40;99.90;;;;;;4997455;28;20361;-85
2023/04/14 02:29:39;;;;;;;32.80;18.67;;;7.40;99.90;;;;;;4997418;28;20049;-86
2023/04/14 02:32:10;;;;;;;36.17;19.38;;;7.40;99.90;;;;;;4979847;28;20109;-83
2023/04/14 02:34:46;;;;;;;33.30;18.98;;;7.40;99.90;;;;;;4997516;28;20477;-84
2023/04/14 02:37:19;;;;;;;32.00;19.33;;;7.30;99.90;;;;;;4997512;28;20023;-84
2023/04/14 02:39:52;;;;;;;35.13;20.30;;;7.30;99.90;;;;;;4997420;28;20029;-85
2023/04/14 02:42:24;;;;;;;33.35;20.50;;;7.30;99.90;;;;;;4997434;28;20105;-85
2023/04/14 02:44:59;;;;;;;30.33;18.67;;;7.30;99.90;;;;;;4979815;28;20023;-84
2023/04/14 02:47:42;;;;;;;32.90;19.40;;;7.30;99.90;;;;;;4979552;28;20033;-84
2023/04/14 02:50:12;;;;;;;36.67;19.20;;;7.30;99.90;;;;;;4980242;28;20361;-84
2023/04/14 02:52:39;;;;;;;32.00;19.73;;;7.40;99.90;;;;;;4996716;28;20042;-83
2023/04/14 02:55:08;;;;;;;33.78;20.13;;;7.30;99.90;;;;;;4997019;28;20034;-83
2023/04/14 02:57:34;;;;;;;34.20;20.27;;;7.20;99.90;;;;;;4996842;28;20023;-84
2023/04/14 03:00:04;;;;;;;31.02;19.27;;;7.30;99.90;;;;;;4996965;28;20023;-84
2023/04/14 03:02:31;;;;;;;32.67;19.92;;;7.20;99.90;;;;;;4996864;28;20046;-84
2023/04/14 03:04:58;;;;;;;32.75;20.25;;;7.20;99.90;;;;;;4996963;28;20030;-85
2023/04/14 03:07:26;;;;;;;33.53;19.48;;;7.20;99.90;;;;;;4996581;28;20054;-83
2023/04/14 03:09:53;;;;;;;30.83;18.45;;;7.20;99.90;;;;;;4997002;28;20507;-85
2023/04/14 03:12:20;;;;;;;36.78;19.17;;;7.20;99.90;;;;;;4996592;28;20402;-84
2023/04/14 03:14:47;;;;;;;30.48;18.25;;;7.20;99.90;;;;;;4996720;28;20109;-85
2023/04/14 03:17:14;;;;;;;27.38;17.05;;;7.20;99.90;;;;;;4979512;28;20557;-84
2023/04/14 03:19:41;;;;;;;27.98;17.70;;;7.20;99.90;;;;;;4996675;28;20033;-84
2023/04/14 03:22:11;;;;;;;26.88;16.42;;;7.30;99.90;;;;;;4979552;28;20106;-84
2023/04/14 03:24:39;;;;;;;23.88;16.05;;;7.30;99.90;;;;;;4996641;28;20369;-84
2023/04/14 03:27:09;;;;;;;27.02;16.95;;;7.30;99.90;;;;;;4996352;28;20014;-84
2023/04/14 03:29:42;;;;;;;27.45;15.90;;;7.30;99.90;;;;;;4996135;28;20031;-85
2023/04/14 03:32:09;;;;;;;27.33;16.08;;;7.30;99.90;;;;;;4996413;28;20034;-84
2023/04/14 03:34:40;;;;;;;29.70;17.23;;;7.30;99.90;;;;;;4995256;28;20495;-84
2023/04/14 03:37:07;;;;;;;26.80;15.32;;;7.30;99.90;;;;;;4978749;28;20444;-85
2023/04/14 03:39:37;;;;;;;25.20;15.60;;;7.30;99.90;;;;;;4995830;28;20023;-84
2023/04/14 03:42:06;;;;;;;23.10;15.55;;;7.30;99.90;;;;;;4996191;28;20027;-84
2023/04/14 03:44:35;;;;;;;29.88;18.27;;;7.30;99.90;;;;;;4995658;28;20388;-84
2023/04/14 03:47:02;;;;;;;26.95;16.75;;;7.30;99.90;;;;;;4995990;28;20062;-84
2023/04/14 03:49:29;;;;;;;26.02;16.77;;;7.30;99.90;;;;;;4995768;28;20041;-85
2023/04/14 03:52:01;;;;;;;30.33;17.17;;;7.30;99.90;;;;;;4978511;28;20113;-84
2023/04/14 03:54:29;;;;;;;25.60;16.27;;;7.30;99.90;;;;;;4995462;28;20059;-83
2023/04/14 03:56:57;;;;;;;29.42;17.70;;;7.30;99.90;;;;;;4995643;28;20080;-84
2023/04/14 03:59:25;;;;;;;26.35;17.73;;;7.20;99.90;;;;;;4995636;28;20019;-84
2023/04/14 04:01:52;;;;;;;31.30;18.42;;;7.30;99.90;;;;;;4995840;28;20034;-85
2023/04/14 04:04:18;;;;;;;31.67;18.45;;;7.30;99.90;;;;;;4995802;28;20030;-84
2023/04/14 04:06:44;;;;;;;36.70;21.45;;;7.30;99.90;;;;;;4996139;28;20030;-84
2023/04/14 04:09:14;;;;;;;32.58;18.50;;;7.30;99.90;;;;;;4995387;28;20042;-85
2023/04/14 04:11:44;;;;;;;36.38;20.80;;;7.30;99.90;;;;;;4978134;28;20471;-84
2023/04/14 04:14:11;;;;;;;37.38;21.30;;;7.30;99.90;;;;;;4977251;28;20069;-84
2023/04/14 04:16:40;;;;;;;38.20;21.65;;;7.30;99.90;;;;;;4967893;28;20197;-85
2023/04/14 04:19:06;;;;;;;38.85;20.73;;;7.30;99.90;;;;;;4975741;28;20031;-85
2023/04/14 04:21:35;;;;;;;35.83;23.52;;;7.30;99.90;;;;;;4975987;28;20031;-84
2023/04/14 04:24:03;;;;;;;39.97;22.83;;;7.40;99.90;;;;;;4958878;28;20037;-85
2023/04/14 04:26:29;;;;;;;38.50;23.38;;;7.40;99.90;;;;;;4975677;28;20041;-84
2023/04/14 04:28:59;;;;;;;37.50;21.90;;;7.50;99.90;;;;;;4976016;28;20121;-84
2023/04/14 04:31:29;;;;;;;42.28;24.20;;;7.50;99.90;;;;;;4977543;28;20476;-84
2023/04/14 04:33:57;;;;;;;35.97;21.33;;;7.50;99.90;;;;;;4975579;28;20030;-85
2023/04/14 04:36:25;;;;;;;43.83;24.45;;;7.60;99.90;;;;;;4958341;28;20031;-84
2023/04/14 04:38:50;;;;;;;41.00;23.50;;;7.60;99.90;;;;;;4975747;28;20506;-84
2023/04/14 04:41:28;;;;;;;44.15;24.25;;;7.60;99.90;;;;;;4975515;28;20027;-85
2023/04/14 04:43:54;;;;;;;41.40;23.45;;;7.60;99.90;;;;;;4975665;28;20109;-85
2023/04/14 04:46:28;;;;;;;42.80;24.25;;;7.70;99.90;;;;;;4975650;28;20034;-85
2023/04/14 04:48:56;;;;;;;38.92;22.23;;;7.70;99.90;;;;;;4964342;28;20034;-85
2023/04/14 04:51:21;;;;;;;46.40;26.42;;;7.70;99.90;;;;;;4994882;28;20022;-85
2023/04/14 04:53:47;;;;;;;52.78;27.15;;;7.70;99.90;;;;;;4981087;28;20101;-85
2023/04/14 04:56:13;;;;;;;57.13;28.23;;;7.60;99.90;;;;;;4981404;28;20026;-85
2023/04/14 04:58:38;;;;;;;62.58;31.45;;;7.60;99.90;;;;;;4994483;28;20026;-85
2023/04/14 05:01:10;;;;;;;58.25;31.10;;;7.50;99.90;;;;;;4988549;28;20408;-85
2023/04/14 05:03:36;;;;;;;59.35;30.52;;;7.50;99.90;;;;;;4983694;28;20022;-85
2023/04/14 05:06:02;;;;;;;53.10;28.88;;;7.40;99.90;;;;;;4982825;28;20126;-85
2023/04/14 05:08:28;;;;;;;66.45;33.15;;;7.40;99.90;;;;;;4977924;28;20039;-85
2023/04/14 05:10:54;;;;;;;61.40;29.73;;;7.50;99.90;;;;;;4982946;28;20033;-85
2023/04/14 05:13:21;;;;;;;65.47;32.05;;;7.50;99.90;;;;;;4979948;28;20026;-85
2023/04/14 05:15:47;;;;;;;57.20;27.80;;;7.50;99.90;;;;;;4962452;28;20026;-85
2023/04/14 05:18:13;;;;;;;64.97;31.63;;;7.50;99.90;;;;;;4974862;28;20114;-86
2023/04/14 05:20:38;;;;;;;64.38;31.70;;;7.40;99.90;;;;;;4960707;28;20019;-85
2023/04/14 05:23:04;;;;;;;63.35;30.30;;;7.40;99.90;;;;;;4976525;28;20362;-85
2023/04/14 05:25:30;;;;;;;63.47;32.88;;;7.40;99.90;;;;;;4982088;28;20464;-85
2023/04/14 05:27:56;;;;;;;66.47;34.90;;;7.40;99.90;;;;;;4966554;28;20026;-86
2023/04/14 05:30:21;;;;;;;66.18;32.08;;;7.40;99.90;;;;;;4986717;28;20381;-85
2023/04/14 05:32:47;;;;;;;66.60;34.03;;;7.40;99.90;;;;;;4964197;28;20057;-85
2023/04/14 05:35:13;;;;;;;70.70;34.08;;;7.40;99.90;;;;;;4965279;28;20080;-86
2023/04/14 05:37:38;;;;;;;70.50;34.78;;;7.40;99.90;;;;;;4985013;28;20031;-86
2023/04/14 05:40:05;;;;;;;72.30;34.55;;;7.40;99.90;;;;;;4982866;28;20026;-85
2023/04/14 05:42:31;;;;;;;71.35;34.78;;;7.40;99.90;;;;;;4966688;28;20417;-87
2023/04/14 05:44:56;;;;;;;77.72;36.28;;;7.50;99.90;;;;;;4978060;28;20123;-86
2023/04/14 05:47:22;;;;;;;72.88;35.63;;;7.50;99.90;;;;;;4974336;28;20084;-85
2023/04/14 05:49:48;;;;;;;71.35;34.47;;;7.60;99.90;;;;;;4973202;28;20480;-85
2023/04/14 05:52:13;;;;;;;66.47;34.85;;;7.60;99.90;;;;;;4993539;28;20113;-86
2023/04/14 05:54:39;;;;;;;63.38;32.17;;;7.70;99.90;;;;;;4976579;28;20026;-86
2023/04/14 05:57:05;;;;;;;67.22;34.35;;;7.70;99.90;;;;;;4975637;28;20028;-86
2023/04/14 05:59:31;;;;;;;75.05;35.65;;;7.70;99.90;;;;;;4993569;28;20110;-88
2023/04/14 06:01:57;;;;;;;68.88;33.67;;;7.80;99.90;;;;;;4970088;28;20022;-86
2023/04/14 06:04:23;;;;;;;68.15;38.25;;;7.80;99.90;;;;;;4956626;28;20034;-85
2023/04/14 06:06:49;;;;;;;71.40;35.35;;;7.90;99.90;;;;;;4956902;28;20011;-86
2023/04/14 06:09:15;;;;;;;64.85;33.75;;;8.00;99.90;;;;;;4970760;28;20416;-85
2023/04/14 06:11:41;;;;;;;68.45;33.92;;;8.10;99.90;;;;;;4962559;28;20097;-86
2023/04/14 06:14:09;;;;;;;69.60;35.08;;;8.10;99.90;;;;;;4976990;28;20019;-86
2023/04/14 06:16:35;;;;;;;66.40;35.80;;;8.10;99.90;;;;;;4984459;28;20022;-85
2023/04/14 06:19:01;;;;;;;66.55;32.78;;;8.10;99.90;;;;;;4984137;28;20520;-85
2023/04/14 06:21:26;;;;;;;67.15;34.15;;;8.20;99.90;;;;;;4967302;28;20049;-85
2023/04/14 06:23:52;;;;;;;66.90;34.75;;;8.30;99.90;;;;;;4983406;28;20027;-86
2023/04/14 06:26:18;;;;;;;71.40;36.75;;;8.40;99.90;;;;;;4967871;28;20019;-86
2023/04/14 06:28:45;;;;;;;74.47;38.33;;;8.50;99.90;;;;;;4993391;28;20042;-86
2023/04/14 06:31:13;;;;;;;66.07;32.67;;;8.60;99.90;;;;;;4987546;28;20053;-87
2023/04/14 06:33:38;;;;;;;61.85;33.40;;;8.70;99.90;;;;;;4990542;28;20081;-86
2023/04/14 06:36:05;;;;;;;66.97;33.10;;;8.80;99.90;;;;;;4967199;28;20470;-87
2023/04/14 06:38:30;;;;;;;59.83;33.88;;;8.90;99.90;;;;;;4987304;28;20026;-86
2023/04/14 06:40:56;;;;;;;61.10;33.22;;;9.10;99.90;;;;;;4990154;28;20485;-87
2023/04/14 06:43:22;;;;;;;56.53;31.88;;;9.20;99.90;;;;;;4981989;28;20033;-85
2023/04/14 06:45:49;;;;;;;54.33;29.50;;;9.30;99.90;;;;;;4993159;28;20025;-85
2023/04/14 06:48:15;;;;;;;53.30;27.70;;;9.40;99.90;;;;;;4975239;28;20486;-86
2023/04/14 06:50:41;;;;;;;57.63;28.95;;;9.50;99.90;;;;;;4976044;28;20109;-86
2023/04/14 06:53:08;;;;;;;55.72;30.02;;;9.70;99.90;;;;;;4984810;28;20409;-86
2023/04/14 06:55:40;;;;;;;47.47;27.67;;;9.90;99.90;;;;;;4983515;28;20022;-85
2023/04/14 06:58:05;;;;;;;62.25;30.25;;;9.90;99.90;;;;;;4982954;28;20034;-84
2023/04/14 07:00:31;;;;;;;56.83;29.52;;;10.10;99.90;;;;;;4973815;28;20110;-84
2023/04/14 07:02:57;;;;;;;57.47;30.15;;;10.20;99.90;;;;;;4973698;28;20046;-86
2023/04/14 07:05:22;;;;;;;52.50;28.38;;;10.30;99.90;;;;;;4955881;28;20031;-89
2023/04/14 07:07:48;;;;;;;47.85;27.95;;;10.30;99.90;;;;;;4973728;28;20034;-86
2023/04/14 07:10:14;;;;;;;48.17;27.15;;;10.30;99.90;;;;;;4976291;28;20023;-85
2023/04/14 07:12:40;;;;;;;51.38;28.63;;;10.40;99.90;;;;;;4977101;28;20543;-85
2023/04/14 07:15:06;;;;;;;46.90;27.35;;;10.50;99.90;;;;;;4959750;28;20031;-85
2023/04/14 07:17:34;;;;;;;47.70;25.80;;;10.70;99.90;;;;;;4959573;28;20101;-85
2023/04/14 07:20:00;;;;;;;48.03;26.33;;;10.80;99.90;;;;;;4959535;28;20027;-86
2023/04/14 07:22:26;;;;;;;46.50;25.17;;;10.90;99.90;;;;;;4959556;28;20023;-86
2023/04/14 07:24:52;;;;;;;43.13;25.00;;;11.10;99.90;;;;;;4977322;28;20101;-86
2023/04/14 07:27:18;;;;;;;36.13;22.33;;;11.30;99.90;;;;;;4959776;28;20026;-84
2023/04/14 07:29:44;;;;;;;35.50;22.55;;;11.30;99.90;;;;;;4959780;28;20105;-85
2023/04/14 07:32:12;;;;;;;34.05;20.77;;;11.40;99.90;;;;;;4959699;28;20110;-87
2023/04/14 07:34:40;;;;;;;35.97;21.17;;;11.40;99.90;;;;;;4959518;28;20388;-86
2023/04/14 07:37:06;;;;;;;31.42;19.10;;;11.50;99.90;;;;;;4959407;28;20023;-84
2023/04/14 07:39:31;;;;;;;36.83;20.55;;;11.60;99.90;;;;;;4963812;28;20023;-84
2023/04/14 07:41:57;;;;;;;28.27;18.70;;;11.70;99.90;;;;;;4977082;28;20126;-84
2023/04/14 07:44:23;;;;;;;33.80;20.42;;;11.90;99.90;;;;;;4976190;28;20027;-84
2023/04/14 07:46:49;;;;;;;28.10;18.38;;;11.90;99.90;;;;;;4976860;28;20025;-84
2023/04/14 07:49:15;;;;;;;22.50;14.48;;;12.10;99.90;;;;;;4976725;28;20038;-83
2023/04/14 07:51:41;;;;;;;16.77;12.30;;;12.20;94.60;;;;;;4976484;28;20026;-83
2023/04/14 07:54:07;;;;;;;19.15;11.38;;;12.20;89.00;;;;;;4978291;28;20117;-86
2023/04/14 07:56:33;;;;;;;21.20;13.60;;;12.10;82.20;;;;;;4974719;28;20483;-83
2023/04/14 07:58:59;;;;;;;17.70;12.52;;;12.20;85.40;;;;;;4957541;28;20113;-83
2023/04/14 08:01:24;;;;;;;19.48;13.70;;;12.40;85.70;;;;;;4974691;28;20030;-85
2023/04/14 08:03:50;;;;;;;16.52;12.10;;;12.50;87.00;;;;;;4956693;28;20023;-83
2023/04/14 08:06:16;;;;;;;17.92;11.98;;;12.70;84.70;;;;;;4973961;28;20023;-83
2023/04/14 08:08:42;;;;;;;18.05;11.15;;;12.80;84.00;;;;;;4986365;28;20038;-85
2023/04/14 08:11:08;;;;;;;17.13;13.10;;;12.90;81.90;;;;;;4993907;28;20041;-82
2023/04/14 08:13:33;;;;;;;19.20;13.05;;;13.20;82.80;;;;;;4993960;28;20124;-84
2023/04/14 08:15:59;;;;;;;21.33;14.50;;;13.10;80.00;;;;;;4994070;28;20109;-83
2023/04/14 08:18:25;;;;;;;18.48;11.90;;;13.10;80.00;;;;;;4995037;28;20453;-83
2023/04/14 08:20:51;;;;;;;24.13;11.73;;;13.10;78.30;;;;;;4977512;28;20026;-83
2023/04/14 08:23:16;;;;;;;15.95;10.75;;;13.10;77.10;;;;;;4977532;28;20022;-85
2023/04/14 08:25:43;;;;;;;13.70;9.38;;;13.30;75.80;;;;;;4995155;28;20057;-83
2023/04/14 08:28:09;;;;;;;15.05;10.38;;;13.30;74.50;;;;;;4994777;28;20042;-83
2023/04/14 08:30:34;;;;;;;16.45;9.23;;;13.40;74.40;;;;;;4995013;28;20023;-85
2023/04/14 08:33:00;;;;;;;13.32;9.80;;;13.50;73.50;;;;;;4995236;28;20070;-83
2023/04/14 08:35:26;;;;;;;12.18;8.60;;;13.60;73.70;;;;;;4977345;28;20076;-85
2023/04/14 08:37:52;;;;;;;14.75;9.18;;;13.50;72.00;;;;;;4977741;28;20550;-84
2023/04/14 08:40:20;;;;;;;13.88;9.77;;;13.50;71.60;;;;;;4977455;28;20487;-83
2023/04/14 08:42:46;;;;;;;15.98;9.35;;;13.60;73.00;;;;;;4994815;28;20054;-83
2023/04/14 08:45:12;;;;;;;14.32;9.55;;;13.60;71.60;;;;;;4977368;28;20065;-84
2023/04/14 08:47:39;;;;;;;13.27;9.35;;;13.60;71.30;;;;;;4994740;28;20062;-85
2023/04/14 08:50:11;;;;;;;12.43;7.82;;;13.50;72.90;;;;;;4994687;28;20034;-86
2023/04/14 08:52:39;;;;;;;10.63;7.90;;;13.50;70.40;;;;;;4994529;28;20121;-84
2023/04/14 08:55:06;;;;;;;11.57;7.05;;;13.50;69.90;;;;;;4994776;28;20061;-84
2023/04/14 08:57:33;;;;;;;11.15;7.50;;;13.40;70.20;;;;;;4994779;28;20396;-83
2023/04/14 09:00:03;;;;;;;11.95;8.70;;;13.50;70.40;;;;;;4977239;28;20022;-83
2023/04/14 09:02:30;;;;;;;11.20;6.57;;;13.80;71.40;;;;;;4977681;28;20396;-84
2023/04/14 09:04:57;;;;;;;10.68;7.07;;;14.00;68.00;;;;;;4994710;28;20117;-83
2023/04/14 09:07:23;;;;;;;11.38;7.50;;;14.40;67.20;;;;;;4977351;28;20062;-83
2023/04/14 09:09:49;;;;;;;9.55;6.80;;;14.60;65.90;;;;;;4994686;28;20042;-84
2023/04/14 09:12:18;;;;;;;12.35;8.27;;;14.70;66.10;;;;;;4976775;28;20037;-83
2023/04/14 09:14:45;;;;;;;10.30;6.93;;;14.70;64.80;;;;;;4977142;28;20026;-84
2023/04/14 09:17:11;;;;;;;11.80;7.45;;;14.80;65.20;;;;;;4977152;28;20062;-83
2023/04/14 09:19:37;;;;;;;9.43;5.90;;;14.90;64.90;;;;;;4994353;28;20018;-85
2023/04/14 09:22:03;;;;;;;13.25;6.78;;;14.90;61.50;;;;;;4994194;28;20025;-83
2023/04/14 09:24:32;;;;;;;8.05;5.80;;;14.90;60.60;;;;;;4994226;28;20031;-83
2023/04/14 09:27:02;;;;;;;6.57;5.30;;;14.80;60.20;;;;;;4993874;28;20022;-83
2023/04/14 09:29:28;;;;;;;9.50;5.40;;;14.80;59.60;;;;;;4994110;28;20058;-84
2023/04/14 09:31:54;;;;;;;6.80;5.32;;;14.90;59.50;;;;;;4993472;28;20063;-85
2023/04/14 09:34:20;;;;;;;9.80;4.75;;;15.20;60.30;;;;;;4976591;28;20026;-84
2023/04/14 09:37:06;;;;;;;7.68;4.93;;;15.40;58.20;;;;;;4977080;28;20026;-83
2023/04/14 09:39:34;;;;;;;8.60;5.22;;;15.40;56.20;;;;;;4993910;28;20072;-83
2023/04/14 09:42:00;;;;;;;6.65;5.63;;;15.60;57.50;;;;;;4993474;28;20019;-83
2023/04/14 09:44:26;;;;;;;7.57;5.57;;;15.70;57.10;;;;;;4975802;28;20097;-85
2023/04/14 09:47:06;;;;;;;9.27;5.82;;;15.80;57.60;;;;;;4976455;28;20464;-85
2023/04/14 09:49:32;;;;;;;9.20;5.22;;;15.90;56.20;;;;;;4976089;28;20034;-85
2023/04/14 09:52:07;;;;;;;6.82;5.55;;;15.90;56.20;;;;;;4976261;28;20037;-84
2023/04/14 09:54:33;;;;;;;7.65;5.70;;;16.00;57.70;;;;;;4976496;28;20050;-86
2023/04/14 09:56:58;;;;;;;7.95;6.53;;;16.00;56.30;;;;;;4993532;28;20029;-84
2023/04/14 09:59:37;;;;;;;10.85;6.40;;;15.90;57.30;;;;;;4993557;28;20030;-84
2023/04/14 10:02:08;;;;;;;6.20;5.38;;;15.80;57.50;;;;;;4976165;28;20384;-85
2023/04/14 10:04:35;;;;;;;7.88;6.00;;;15.70;56.20;;;;;;4976317;28;20030;-85
2023/04/14 10:07:05;;;;;;;7.05;5.32;;;15.60;57.00;;;;;;4976154;28;20121;-85
2023/04/14 10:09:36;;;;;;;7.85;5.88;;;15.50;58.30;;;;;;4973623;28;20035;-85
2023/04/14 10:12:16;;;;;;;10.15;5.65;;;15.40;58.00;;;;;;4972576;28;20039;-86
2023/04/14 10:14:43;;;;;;;6.00;4.85;;;15.50;58.40;;;;;;4973107;28;20393;-85
2023/04/14 10:17:10;;;;;;;7.38;5.60;;;15.50;57.80;;;;;;4972318;28;20047;-84
2023/04/14 10:19:36;;;;;;;7.35;5.57;;;15.40;58.00;;;;;;4971308;28;20019;-84
2023/04/14 10:22:03;;;;;;;8.43;5.47;;;15.40;58.10;;;;;;4955823;28;20118;-84
2023/04/14 10:24:30;;;;;;;6.72;4.75;;;15.50;57.80;;;;;;4956298;28;20031;-84
2023/04/14 10:26:56;;;;;;;7.15;5.72;;;15.50;57.50;;;;;;4957194;28;20381;-86
2023/04/14 10:29:22;;;;;;;8.05;5.18;;;15.50;57.40;;;;;;4973625;28;20068;-86
2023/04/14 10:32:00;;;;;;;7.03;5.40;;;15.60;57.40;;;;;;4974151;28;20101;-85
2023/04/14 10:34:31;;;;;;;5.43;4.72;;;15.70;57.30;;;;;;4956340;28;20112;-84
2023/04/14 10:37:14;;;;;;;7.18;4.75;;;15.60;56.30;;;;;;4956602;28;20033;-86
2023/04/14 10:39:41;;;;;;;8.10;4.63;;;15.60;55.80;;;;;;4974283;28;20037;-84
2023/04/14 10:42:06;;;;;;;5.72;4.85;;;15.50;55.40;;;;;;4973962;28;20026;-87
2023/04/14 10:44:34;;;;;;;5.53;4.25;;;15.60;55.80;;;;;;4976607;28;20023;-85
2023/04/14 10:47:03;;;;;;;5.65;4.60;;;15.60;55.80;;;;;;4977920;28;20377;-84
2023/04/14 10:49:31;;;;;;;6.43;4.68;;;15.60;54.80;;;;;;4976715;28;20089;-83
2023/04/14 10:52:18;;;;;;;7.30;5.20;;;15.60;54.70;;;;;;4995230;28;20092;-84
2023/04/14 10:54:53;;;;;;;11.38;5.93;;;15.70;56.10;;;;;;4977635;28;20144;-84
2023/04/14 10:57:26;;;;;;;7.28;4.82;;;15.70;54.70;;;;;;4978005;28;20044;-83
2023/04/14 10:59:58;;;;;;;6.20;4.25;;;15.80;55.20;;;;;;4995743;28;20100;-85
2023/04/14 11:02:24;;;;;;;9.50;4.22;;;15.80;55.50;;;;;;4991217;28;20416;-86
2023/04/14 11:05:20;;;;;;;5.63;4.70;;;15.80;54.90;;;;;;4960283;28;20066;-84
2023/04/14 11:07:47;;;;;;;7.15;5.00;;;15.80;55.60;;;;;;4954489;28;20397;-87
2023/04/14 11:10:16;;;;;;;7.28;4.78;;;15.90;56.30;;;;;;4976001;28;20400;-86
2023/04/14 11:12:43;;;;;;;5.47;4.47;;;16.00;56.10;;;;;;4972583;28;20033;-86
2023/04/14 11:15:09;;;;;;;6.07;4.07;;;16.00;55.30;;;;;;4986039;28;20507;-83
2023/04/14 11:17:44;;;;;;;5.90;4.55;;;15.80;54.40;;;;;;4973267;28;20023;-87
2023/04/14 11:20:20;;;;;;;6.18;4.80;;;15.80;55.10;;;;;;4959762;28;20176;-86
2023/04/14 11:22:48;;;;;;;7.00;5.00;;;15.90;55.60;;;;;;4977097;28;20507;-84
2023/04/14 11:25:16;;;;;;;7.80;5.40;;;15.90;55.30;;;;;;4983525;28;20029;-85
2023/04/14 11:27:43;;;;;;;5.78;4.40;;;15.80;55.10;;;;;;4959656;28;20492;-85
2023/04/14 11:30:13;;;;;;;9.25;4.60;;;15.80;54.90;;;;;;4986074;28;20061;-86
2023/04/14 11:32:56;;;;;;;8.20;4.00;;;15.70;54.50;;;;;;4967155;28;20019;-86
2023/04/14 11:35:29;;;;;;;5.70;4.97;;;15.70;55.00;;;;;;4983361;28;20411;-86
2023/04/14 11:37:55;;;;;;;;;;;15.80;55.60;;;;;;4984456;28;20078;-84
2023/04/14 11:40:22;;;;;;;4.88;4.38;;;15.80;55.10;;;;;;4974647;28;19913;-86
2023/04/14 11:42:58;;;;;;;9.15;4.80;;;15.90;55.70;;;;;;4965220;28;20033;-84
2023/04/14 11:45:30;;;;;;;8.07;4.70;;;16.10;55.50;;;;;;4975193;28;20110;-84
2023/04/14 11:48:01;;;;;;;6.30;4.68;;;16.10;55.40;;;;;;4976395;28;20037;-84
2023/04/14 11:50:30;;;;;;;6.43;4.97;;;16.00;54.20;;;;;;4960896;28;20030;-85
2023/04/14 11:52:59;;;;;;;6.45;4.40;;;15.90;54.60;;;;;;4971499;28;20057;-86
2023/04/14 11:55:26;;;;;;;6.40;5.28;;;15.80;54.10;;;;;;4965488;28;20473;-83
2023/04/14 11:57:52;;;;;;;4.60;4.07;;;15.70;54.20;;;;;;4984912;28;20031;-86
2023/04/14 12:00:18;;;;;;;6.50;4.55;;;15.80;53.90;;;;;;4983858;28;20485;-83
2023/04/14 12:02:44;;;;;;;6.25;4.60;;;15.80;53.80;;;;;;4978172;28;20066;-86
2023/04/14 12:05:12;;;;;;;5.40;4.85;;;15.90;54.80;;;;;;4974267;28;20357;-85
2023/04/14 12:07:41;;;;;;;6.88;4.18;;;16.00;54.50;;;;;;4978216;28;20022;-84
2023/04/14 12:10:07;;;;;;;5.60;4.47;;;16.10;54.80;;;;;;4966990;28;20027;-87
2023/04/14 12:12:33;;;;;;;4.32;3.78;;;16.10;54.00;;;;;;4974679;28;20026;-87
2023/04/14 12:14:59;;;;;;;9.07;4.65;;;15.90;53.60;;;;;;4987512;28;20014;-87
2023/04/14 12:17:25;;;;;;;5.00;4.05;;;16.00;54.30;;;;;;4985982;28;20026;-84
2023/04/14 12:19:51;;;;;;;11.23;4.55;;;16.10;54.90;;;;;;4983709;28;20034;-88
2023/04/14 12:22:28;;;;;;;7.80;4.38;;;16.00;53.90;;;;;;4970890;28;20551;-84
2023/04/14 12:24:57;;;;;;;6.22;4.03;;;15.80;53.50;;;;;;4984922;28;20104;-84
2023/04/14 12:27:24;;;;;;;6.57;4.10;;;15.80;53.70;;;;;;4965949;28;20060;-86
2023/04/14 12:29:51;;;;;;;5.78;4.05;;;15.80;54.20;;;;;;4996630;28;20026;-86
2023/04/14 12:32:17;;;;;;;5.95;4.32;;;15.80;54.50;;;;;;4972349;28;20023;-86
2023/04/14 12:34:57;;;;;;;5.60;4.32;;;15.80;55.00;;;;;;4981752;28;20486;-86
2023/04/14 12:37:26;;;;;;;4.88;4.45;;;15.90;55.10;;;;;;4980252;28;20026;-86
2023/04/14 12:40:00;;;;;;;5.60;4.38;;;16.00;54.90;;;;;;4981903;28;20031;-86
2023/04/14 12:42:27;;;;;;;4.35;3.83;;;15.90;54.40;;;;;;4958635;28;20034;-84